Skip to main content

NOAA/GLERL Met Station at Muskegon, MI

Previous 3 Hours (2 minute increments)
See also Previous 5 Days (top of hour)
Jump down to Data
Switch to [English][Metric]
Zoom: Click and drag, Pan: shift-click and drag, Unzoom: double-click, Unzoom All






See also 1-day windrose plot


NOAA/GLERL Met Station at Muskegon, MI

Previous 3 Hours (2 minute increments)
See also Previous 5 Days (top of hour only)
Jump up to Graphs
Switch to [English][Metric]
                  Wind  Wind  Wind   Air   Dew   Rel     Sta   PAR
                   Spd   Gst   Dir  Temp    Pt   Hum    Pres uE/m2/
YYYY-MM-DD   EST   kts   kts   deg     F     F     %   in Hg   sec
2024-02-26 10:10 -99.0 -99.0   -99  41.7  25.9  53.1   29.24  1161
2024-02-26 10:08 -99.0 -99.0   -99  41.5  25.7  53.0   29.24  1274
2024-02-26 10:06 -99.0 -99.0   -99  41.5  25.7  53.0   29.24  1107
2024-02-26 10:04 -99.0 -99.0   -99  41.2  25.5  53.1   29.24  1077
2024-02-26 10:02 -99.0 -99.0   -99  41.2  25.3  53.1   29.24  1153
2024-02-26 10:00 -99.0 -99.0   -99  41.0  25.3  53.2   29.24  1054
2024-02-26 09:58 -99.0 -99.0   -99  40.8  25.2  53.1   29.24  1061
2024-02-26 09:56 -99.0 -99.0   -99  40.5  24.6  52.8   29.24   983
2024-02-26 09:54 -99.0 -99.0   -99  40.6  24.6  52.5   29.24   872
2024-02-26 09:52 -99.0 -99.0   -99  40.5  24.6  52.6   29.24   701
2024-02-26 09:50 -99.0 -99.0   -99  40.6  24.6  52.8   29.24   921
2024-02-26 09:48 -99.0 -99.0   -99  40.5  24.8  53.1   29.25   655
2024-02-26 09:46 -99.0 -99.0   -99  40.5  24.6  52.9   29.25   809
2024-02-26 09:44 -99.0 -99.0   -99  40.3  24.6  53.4   29.25   915
2024-02-26 09:42 -99.0 -99.0   -99  40.1  24.6  53.4   29.25  1021
2024-02-26 09:40 -99.0 -99.0   -99  39.9  24.4  53.6   29.25  1224
2024-02-26 09:38 -99.0 -99.0   -99  39.9  24.6  54.0   29.25  1094
2024-02-26 09:36 -99.0 -99.0   -99  39.7  24.4  53.8   29.25  1176
2024-02-26 09:34 -99.0 -99.0   -99  39.6  24.6  54.7   29.25  1252
2024-02-26 09:32 -99.0 -99.0   -99  39.4  24.4  54.3   29.25  1246
2024-02-26 09:30 -99.0 -99.0   -99  39.6  24.4  54.5   29.26  1240
2024-02-26 09:28 -99.0 -99.0   -99  39.2  24.1  54.4   29.26  1230
2024-02-26 09:26 -99.0 -99.0   -99  39.0  24.1  54.5   29.25  1221
2024-02-26 09:24 -99.0 -99.0   -99  39.0  24.1  54.6   29.26  1211
2024-02-26 09:22 -99.0 -99.0   -99  39.0  24.4  55.4   29.26  1199
2024-02-26 09:20 -99.0 -99.0   -99  39.0  24.3  55.0   29.26  1187
2024-02-26 09:18 -99.0 -99.0   -99  38.8  23.9  54.6   29.25  1175
2024-02-26 09:16 -99.0 -99.0   -99  38.8  24.1  55.1   29.26  1163
2024-02-26 09:14 -99.0 -99.0   -99  38.5  23.9  55.5   29.26  1155
2024-02-26 09:12 -99.0 -99.0   -99  38.5  23.9  55.5   29.26  1142
2024-02-26 09:10 -99.0 -99.0   -99  38.3  23.7  55.4   29.26  1129
2024-02-26 09:08 -99.0 -99.0   -99  38.3  23.7  55.5   29.26  1117
2024-02-26 09:06 -99.0 -99.0   -99  38.3  23.9  55.8   29.26  1104
2024-02-26 09:04 -99.0 -99.0   -99  38.1  23.9  56.0   29.26  1090
2024-02-26 09:02 -99.0 -99.0   -99  38.1  23.9  56.4   29.26  1073
2024-02-26 09:00 -99.0 -99.0   -99  37.9  23.9  56.6   29.27  1053
2024-02-26 08:58 -99.0 -99.0   -99  37.9  23.9  56.9   29.26  1043
2024-02-26 08:56 -99.0 -99.0   -99  37.8  23.9  57.1   29.26  1030
2024-02-26 08:54 -99.0 -99.0   -99  37.6  24.3  58.2   29.26  1012
2024-02-26 08:52 -99.0 -99.0   -99  37.4  24.4  59.1   29.26   995
2024-02-26 08:50 -99.0 -99.0   -99  37.2  24.4  59.5   29.27   978
2024-02-26 08:48 -99.0 -99.0   -99  36.9  24.8  60.9   29.27   962
2024-02-26 08:46 -99.0 -99.0   -99  36.9  24.8  61.6   29.26   946
2024-02-26 08:44 -99.0 -99.0   -99  36.7  25.2  62.7   29.26   929
2024-02-26 08:42 -99.0 -99.0   -99  36.5  25.7  64.5   29.26   911
2024-02-26 08:40 -99.0 -99.0   -99  36.5  25.9  65.1   29.26   892
2024-02-26 08:38 -99.0 -99.0   -99  36.1  26.1  66.2   29.27   810
2024-02-26 08:36 -99.0 -99.0   -99  36.0  27.1  70.0   29.27   699
2024-02-26 08:34 -99.0 -99.0   -99  36.0  27.3  70.7   29.27   814
2024-02-26 08:32 -99.0 -99.0   -99  36.0  27.3  70.4   29.27   799
2024-02-26 08:30 -99.0 -99.0   -99  35.8  27.1  70.1   29.27   778
2024-02-26 08:28 -99.0 -99.0   -99  35.8  27.0  70.1   29.26   754
2024-02-26 08:26 -99.0 -99.0   -99  35.6  27.0  70.2   29.26   730
2024-02-26 08:24 -99.0 -99.0   -99  35.6  27.0  70.5   29.26   704
2024-02-26 08:22 -99.0 -99.0   -99  35.4  27.0  71.0   29.26   670
2024-02-26 08:20 -99.0 -99.0   -99  35.2  27.0  71.5   29.26   651
2024-02-26 08:18 -99.0 -99.0   -99  35.1  26.8  71.6   29.26   626
2024-02-26 08:16 -99.0 -99.0   -99  35.2  27.1  72.0   29.26   603
2024-02-26 08:14 -99.0 -99.0   -99  35.1  27.1  72.5   29.26   571
2024-02-26 08:12 -99.0 -99.0   -99  34.9  27.3  73.2   29.27   537
2024-02-26 08:10 -99.0 -99.0   -99  34.9  27.3  73.7   29.26   498
2024-02-26 08:08 -99.0 -99.0   -99  34.9  27.5  74.5   29.26   463
2024-02-26 08:06 -99.0 -99.0   -99  34.7  27.7  75.0   29.26   425
2024-02-26 08:04 -99.0 -99.0   -99  34.7  27.7  75.3   29.26   411
2024-02-26 08:02 -99.0 -99.0   -99  34.5  27.7  75.6   29.26   374
2024-02-26 08:00 -99.0 -99.0   -99  34.7  27.7  75.8   29.26   340
2024-02-26 07:58 -99.0 -99.0   -99  34.5  27.7  75.8   29.26   304
2024-02-26 07:56 -99.0 -99.0   -99  34.3  27.3  75.5   29.26   281
2024-02-26 07:54 -99.0 -99.0   -99  34.5  27.5  75.4   29.26   247
2024-02-26 07:52 -99.0 -99.0   -99  34.3  27.3  75.4   29.26   212
2024-02-26 07:50 -99.0 -99.0   -99  34.2  27.3  75.7   29.26   173
2024-02-26 07:48 -99.0 -99.0   -99  34.2  27.5  76.4   29.25   141
2024-02-26 07:46 -99.0 -99.0   -99  34.0  27.5  76.9   29.25   122
2024-02-26 07:44 -99.0 -99.0   -99  34.0  27.7  77.1   29.25   103
2024-02-26 07:42 -99.0 -99.0   -99  34.0  27.7  77.3   29.26    85
2024-02-26 07:40 -99.0 -99.0   -99  34.0  27.9  77.6   29.26    62
2024-02-26 07:38 -99.0 -99.0   -99  34.0  27.9  77.9   29.26    46
2024-02-26 07:36 -99.0 -99.0   -99  34.0  28.0  78.3   29.26    39
2024-02-26 07:34 -99.0 -99.0   -99  34.0  28.0  78.7   29.26    33
2024-02-26 07:32 -99.0 -99.0   -99  34.2  28.2  78.8   29.26    27
2024-02-26 07:30 -99.0 -99.0   -99  34.2  28.2  78.7   29.26    23
2024-02-26 07:28 -99.0 -99.0   -99  34.0  28.0  78.5   29.27    19
2024-02-26 07:26 -99.0 -99.0   -99  34.2  28.2  78.6   29.27    15
2024-02-26 07:24 -99.0 -99.0   -99  34.2  28.2  78.5   29.27    12
2024-02-26 07:22 -99.0 -99.0   -99  34.2  28.2  78.7   29.27    10
2024-02-26 07:20 -99.0 -99.0   -99  34.2  28.2  78.7   29.27     8
2024-02-26 07:18 -99.0 -99.0   -99  34.2  28.2  78.7   29.27     6
2024-02-26 07:16 -99.0 -99.0   -99  34.0  28.2  78.9   29.27     5
2024-02-26 07:14 -99.0 -99.0   -99  34.0  28.2  79.1   29.27     4
2024-02-26 07:12 -99.0 -99.0   -99  34.0  28.4  79.5   29.27     3
2024-02-26 07:10 -99.0 -99.0   -99  34.0  28.4  79.7   29.27     3